バンクーバー の空港の天気 - METARとTAF

バンクーバー国際空港 ( CYVR / YVR ) - カナダ ブリティッシュコロンビア州バンクーバー
飛行場実況気象(Metar)
観測時間11/14 05:00 PST (11/14 13:00 UTC)
風向・風速東 7m/s
視程8050m
天気現象弱い雨 もや
少しの雲 雲底高度 460m
全天を覆う雲 雲底高度 880m
気温8℃
湿度93%
気圧1021.5hPa
METARCYVR 141300Z 08013KT 5SM -RA BR FEW015 OVC029 08/07 A3016 RMK SF2SC6 SLP215
過去の天気等 Google飛行場航空写真 Wunderground天気予報

過去48時間のMETAR

飛行場予報(TAF)
発表時間: 11/14 03:38 PST (11/14 11:38 UTC)
予報対象時間: 14日4時 PST ~ 15日10時 PST
風向・風速東 5m/s
視程10km以上
天気現象弱い雨
少しの雲 雲底高度 240m
全天の4割程度の雲 雲底高度 460m
全天を覆う雲 雲底高度 910m
14日4時 PST ~ 14日10時 PST に一時的に
視程3220m
天気現象しゅう雨 もや
全天の4割程度の雲 雲底高度 240m
全天を覆う雲 雲底高度 460m
14日10時 PST から
風向・風速東 5m/s
視程10km以上
全天の4割程度の雲 雲底高度 460m
全天の8割程度の雲 雲底高度 910m
全天を覆う雲 雲底高度 1520m
14日10時 PST ~ 15日1時 PST に一時的に
視程10km以上
天気現象弱いしゅう雨
全天の8割程度の雲 雲底高度 460m
全天を覆う雲 雲底高度 910m
15日1時 PST から
風向・風速東 4m/s
視程10km以上
天気現象弱い雨
全天の4割程度の雲 雲底高度 240m
全天の8割程度の雲 雲底高度 460m
全天を覆う雲 雲底高度 910m
TAF CYVR 141138Z 1412/1518 08010KT 6SM -RA FEW008 SCT015 OVC030
TEMPO 1412/1418 2SM SHRA BR SCT008 OVC015
FM141800 09010KT P6SM SCT015 BKN030 OVC050
TEMPO 1418/1509 P6SM -SHRA BKN015 OVC030
FM150900 09008KT 6SM -RA SCT008 BKN015 OVC030 RMK NXT FCST BY 141500Z